Time;durP1;ratioP1;P1;durP2;ratioP2;P2;SDS_P1;SDS_P2;PMS_P1;PMS_P2;Temp;Humidity;BMP_temperature;BMP_pressure;BME280_temperature;BME280_humidity;BME280_pressure;Samples;Min_cycle;Max_cycle;Signal;HPM_P1;HPM_P2
2021/12/14 00:01:42;;;;;;;;;;;;;;;-1.54;100.00;93389.16;5068820;28;19928;-89
2021/12/14 00:04:12;;;;;;;;;;;;;;;-1.50;100.00;93390.50;5068672;28;20011;-88
2021/12/14 00:06:40;;;;;;;;;;;;;;;-1.50;100.00;93390.50;5068622;28;20299;-90
2021/12/14 00:09:10;;;;;;;;;;;;;;;-1.40;100.00;93386.28;5068321;28;19924;-90
2021/12/14 00:11:53;;;;;;;;;;;;;;;-1.26;100.00;93392.63;5068189;28;19932;-90
2021/12/14 00:15:02;;;;;;;;;;;;;;;-1.12;100.00;93391.44;5068569;28;19954;-88
2021/12/14 00:17:15;;;;;;;;;;;;;;;-0.92;100.00;93396.47;5068194;28;20006;-89
2021/12/14 00:19:44;;;;;;;;;;;;;;;-0.70;100.00;93399.59;5068065;28;20400;-90
2021/12/14 00:22:25;;;;;;;;;;;;;;;-0.60;100.00;93399.59;5068109;28;19924;-91
2021/12/14 00:25:03;;;;;;;;;;;;;;;;;;;;;
2021/12/14 00:28:01;;;;;;;;;;;;;;;-0.53;100.00;93398.13;5053643;28;19928;-89
2021/12/14 00:37:02;;;;;;;;;;;;;;;;;;;;;
2021/12/14 00:39:48;;;;;;;;;;;;;;;-0.77;100.00;93399.38;5058293;28;20445;-88
2021/12/14 00:45:43;;;;;;;;;;;;;;;-0.60;100.00;93414.75;5049063;28;19935;-90
2021/12/14 00:54:02;;;;;;;;;;;;;;;-0.74;100.00;93406.66;5063924;28;19935;-89
2021/12/14 00:59:42;;;;;;;;;;;;;;;-1.02;100.00;93405.78;5012793;28;20044;-90
2021/12/14 01:02:31;;;;;;;;;;;;;;;-1.18;100.00;93404.59;5000730;28;19933;-89
2021/12/14 01:05:33;;;;;;;;;;;;;;;-1.32;100.00;93408.28;5003175;28;20032;-89
2021/12/14 01:11:30;;;;;;;;;;;;;;;-1.32;100.00;93407.47;4994172;28;20392;-90
2021/12/14 01:14:03;;;;;;;;;;;;;;;-1.46;100.00;93406.97;5041810;28;20417;-90
2021/12/14 01:16:35;;;;;;;;;;;;;;;-1.47;100.00;93412.94;5067037;28;19932;-90
2021/12/14 01:19:23;;;;;;;;;;;;;;;-1.48;100.00;93407.06;5067148;28;19932;-89
2021/12/14 01:25:00;;;;;;;;;;;;;;;-1.46;100.00;93406.16;5061989;28;20066;-90
2021/12/14 01:27:34;;;;;;;;;;;;;;;-1.36;100.00;93404.44;5066880;28;20286;-89
2021/12/14 01:30:06;;;;;;;;;;;;;;;-1.27;100.00;93411.22;5067017;28;19931;-90
2021/12/14 01:32:39;;;;;;;;;;;;;;;-1.37;100.00;93406.19;5066879;28;19933;-90
2021/12/14 01:35:12;;;;;;;;;;;;;;;-1.40;100.00;93410.66;5066533;28;20027;-89
2021/12/14 01:37:44;;;;;;;;;;;;;;;-1.36;100.00;93404.44;5067081;28;19932;-88
2021/12/14 01:40:18;;;;;;;;;;;;;;;-1.37;100.00;93403.66;5066850;28;19939;-88
2021/12/14 01:42:49;;;;;;;;;;;;;;;-1.23;100.00;93402.47;5066571;28;19933;-90
2021/12/14 01:45:18;;;;;;;;;;;;;;;-1.20;100.00;93401.41;5066602;28;20393;-89
2021/12/14 01:47:48;;;;;;;;;;;;;;;-1.18;100.00;93401.25;5066265;28;19928;-90
2021/12/14 01:50:18;;;;;;;;;;;;;;;-1.32;100.00;93394.88;5066586;28;20374;-90
2021/12/14 01:52:44;;;;;;;;;;;;;;;-1.18;100.00;93397.03;5066421;28;19932;-89
2021/12/14 01:55:13;;;;;;;;;;;;;;;-1.21;100.00;93399.78;5066508;28;19932;-90
2021/12/14 01:57:43;;;;;;;;;;;;;;;-1.27;100.00;93393.56;5066267;28;19932;-90
2021/12/14 02:00:13;;;;;;;;;;;;;;;-1.23;100.00;93389.06;5066073;28;19933;-88
2021/12/14 02:02:42;;;;;;;;;;;;;;;-1.53;100.00;93391.56;5066099;28;20409;-88
2021/12/14 02:05:15;;;;;;;;;;;;;;;-1.59;100.00;93391.31;5065727;28;19932;-89
2021/12/14 02:07:45;;;;;;;;;;;;;;;-1.69;100.00;93392.06;5066448;28;19929;-88
2021/12/14 02:10:14;;;;;;;;;;;;;;;-1.70;100.00;93390.50;5065924;28;20024;-88
2021/12/14 02:12:42;;;;;;;;;;;;;;;-1.54;100.00;93384.94;5066692;28;20022;-90
2021/12/14 02:15:18;;;;;;;;;;;;;;;-1.72;100.00;93384.00;5066184;28;20391;-89
2021/12/14 02:17:45;;;;;;;;;;;;;;;-1.69;100.00;93389.56;5066071;28;20003;-90
2021/12/14 02:20:23;;;;;;;;;;;;;;;-1.80;100.00;93387.16;5066174;28;19928;-88
2021/12/14 02:22:53;;;;;;;;;;;;;;;-1.68;100.00;93395.38;5066007;28;20040;-89
2021/12/14 02:25:19;;;;;;;;;;;;;;;-1.66;100.00;93393.53;5066243;28;19956;-88
2021/12/14 02:27:50;;;;;;;;;;;;;;;-1.62;100.00;93392.34;5065988;28;19936;-88
2021/12/14 02:30:18;;;;;;;;;;;;;;;-1.66;100.00;93393.53;5065920;28;19939;-88
2021/12/14 02:32:45;;;;;;;;;;;;;;;-1.77;100.00;93386.88;5065818;28;19935;-88
2021/12/14 02:35:13;;;;;;;;;;;;;;;-1.78;100.00;93392.84;5066387;28;19990;-88
2021/12/14 02:37:43;;;;;;;;;;;;;;;-1.90;100.00;93392.97;5065819;28;19936;-88
2021/12/14 02:40:19;;;;;;;;;;;;;;;-1.88;100.00;93398.69;5066098;28;19970;-86
2021/12/14 02:42:48;;;;;;;;;;;;;;;-1.83;100.00;93398.28;5066008;28;19932;-89
2021/12/14 02:45:16;;;;;;;;;;;;;;;-1.93;100.00;93400.78;5065696;28;20002;-89
2021/12/14 02:47:43;;;;;;;;;;;;;;;-1.99;100.00;93395.47;5065851;28;19932;-88
2021/12/14 02:50:13;;;;;;;;;;;;;;;-1.95;100.00;93399.31;5065523;28;19932;-89
2021/12/14 02:52:40;;;;;;;;;;;;;;;-2.02;100.00;93409.91;5065946;28;19951;-88
2021/12/14 02:55:10;;;;;;;;;;;;;;;-1.97;100.00;93411.22;5065839;28;19932;-87
2021/12/14 02:57:40;;;;;;;;;;;;;;;-1.99;100.00;93413.84;5065344;28;19959;-89
2021/12/14 03:00:08;;;;;;;;;;;;;;;-2.03;100.00;93412.53;5065597;28;19924;-86
2021/12/14 03:02:39;;;;;;;;;;;;;;;-2.02;100.00;93409.09;5065533;28;20375;-90
2021/12/14 03:05:07;;;;;;;;;;;;;;;-1.88;100.00;93415.50;5065430;28;19932;-89
2021/12/14 03:07:40;;;;;;;;;;;;;;;-1.85;100.00;93417.75;5065546;28;20365;-90
2021/12/14 03:10:21;;;;;;;;;;;;;;;-1.76;100.00;93418.72;5065527;28;20383;-89
2021/12/14 03:12:55;;;;;;;;;;;;;;;-1.77;100.00;93424.66;5065241;28;20397;-90
2021/12/14 03:15:25;;;;;;;;;;;;;;;-1.69;100.00;93426.53;5065573;28;19933;-90
2021/12/14 03:17:53;;;;;;;;;;;;;;;-1.88;100.00;93386.09;5065581;28;19932;-89
2021/12/14 03:20:21;;;;;;;;;;;;;;;-1.48;100.00;93422.19;5067132;28;20371;-90
2021/12/14 03:22:51;;;;;;;;;;;;;;;-1.43;100.00;93428.56;5067352;28;20030;-90
2021/12/14 03:25:20;;;;;;;;;;;;;;;-1.45;100.00;93425.41;5069037;28;19932;-90
2021/12/14 03:27:51;;;;;;;;;;;;;;;-1.37;100.00;93425.53;5069363;28;19925;-89
2021/12/14 03:30:23;;;;;;;;;;;;;;;-1.43;100.00;93416.75;5069272;28;19932;-90
2021/12/14 03:32:50;;;;;;;;;;;;;;;-1.45;100.00;93421.13;5069289;28;19931;-89
2021/12/14 03:35:19;;;;;;;;;;;;;;;-1.49;100.00;93418.09;5069020;28;19970;-90
2021/12/14 03:38:06;;;;;;;;;;;;;;;-1.47;100.00;93412.94;5069064;28;19963;-89
2021/12/14 03:40:33;;;;;;;;;;;;;;;-1.50;100.00;93420.72;5068635;28;19932;-91
2021/12/14 03:43:02;;;;;;;;;;;;;;;-1.44;100.00;93420.22;5068841;28;19932;-91
2021/12/14 03:45:31;;;;;;;;;;;;;;;-1.44;100.00;93417.69;5068898;28;20322;-90
2021/12/14 03:48:02;;;;;;;;;;;;;;;-1.53;100.00;93418.50;5068805;28;19932;-92
2021/12/14 03:50:29;;;;;;;;;;;;;;;-1.54;100.00;93422.72;5068595;28;19939;-91
2021/12/14 03:53:02;;;;;;;;;;;;;;;-1.78;100.00;93425.59;5068987;28;19935;-89
2021/12/14 03:55:30;;;;;;;;;;;;;;;-1.60;100.00;93425.75;5068789;28;20291;-90
2021/12/14 03:57:57;;;;;;;;;;;;;;;-1.49;100.00;93428.16;5068891;28;19925;-91
2021/12/14 04:00:25;;;;;;;;;;;;;;;-1.37;100.00;93438.94;5068712;28;19970;-91
2021/12/14 04:02:56;;;;;;;;;;;;;;;-1.19;100.00;93435.75;5068423;28;20403;-90
2021/12/14 04:05:26;;;;;;;;;;;;;;;-1.30;100.00;93431.63;5068715;28;20342;-90
2021/12/14 04:07:57;;;;;;;;;;;;;;;-1.39;100.00;93434.94;5068231;28;19939;-90
2021/12/14 04:10:25;;;;;;;;;;;;;;;-1.32;100.00;93432.69;5068822;28;19932;-92
2021/12/14 04:12:58;;;;;;;;;;;;;;;-1.36;100.00;93444.75;5068425;28;20288;-88
2021/12/14 04:15:25;;;;;;;;;;;;;;;-1.55;100.00;93437.97;5068328;28;20022;-90
2021/12/14 04:17:56;;;;;;;;;;;;;;;-1.48;100.00;93442.34;5068118;28;19932;-93
2021/12/14 04:20:27;;;;;;;;;;;;;;;-1.43;100.00;93439.44;5068073;28;19925;-90
2021/12/14 04:22:56;;;;;;;;;;;;;;;-1.68;100.00;93445.75;5068238;28;19932;-92
2021/12/14 04:25:28;;;;;;;;;;;;;;;-1.78;100.00;93443.22;5068123;28;19940;-91
2021/12/14 04:28:07;;;;;;;;;;;;;;;-1.92;100.00;93441.84;5068024;28;19933;-91
2021/12/14 04:30:40;;;;;;;;;;;;;;;-1.80;100.00;93448.38;5068300;28;19939;-90
2021/12/14 04:33:09;;;;;;;;;;;;;;;-1.91;100.00;93446.75;5067187;28;19935;-91
2021/12/14 04:35:37;;;;;;;;;;;;;;;-1.86;100.00;93451.41;5067851;28;19932;-92
2021/12/14 04:38:10;;;;;;;;;;;;;;;-1.77;100.00;93454.88;5068093;28;19932;-91
2021/12/14 04:54:30;;;;;;;;;;;;;;;-1.55;100.00;93456.41;5067871;28;19932;-84
2021/12/14 04:56:57;;;;;;;;;;;;;;;-1.43;100.00;93463.84;5067541;28;19938;-92
2021/12/14 04:59:26;;;;;;;;;;;;;;;-1.37;100.00;93459.09;5067732;28;19932;-92
2021/12/14 05:01:55;;;;;;;;;;;;;;;-1.48;100.00;93459.22;5067388;28;20414;-91
2021/12/14 05:04:24;;;;;;;;;;;;;;;-1.31;100.00;93455.25;5067946;28;19933;-93
2021/12/14 05:06:54;;;;;;;;;;;;;;;-1.39;100.00;93463.44;5068745;28;20343;-94
2021/12/14 05:09:22;;;;;;;;;;;;;;;-1.27;100.00;93460.81;5074107;28;20359;-92
2021/12/14 05:11:52;;;;;;;;;;;;;;;-1.31;100.00;93465.31;5073654;28;19970;-91
2021/12/14 05:14:23;;;;;;;;;;;;;;;-1.29;100.00;93458.41;5074862;28;19924;-91
2021/12/14 05:17:09;;;;;;;;;;;;;;;-1.15;100.00;93461.50;5076174;28;19931;-90
2021/12/14 05:19:48;;;;;;;;;;;;;;;;;;;;;
2021/12/14 05:25:38;;;;;;;;;;;;;;;-1.35;100.00;93466.50;5002811;28;19932;-91
2021/12/14 05:31:45;;;;;;;;;;;;;;;;;;;;;
2021/12/14 05:49:20;;;;;;;;;;;;;;;-1.85;100.00;93470.63;5054944;28;19989;-89
2021/12/14 06:52:04;;;;;;;;;;;;;;;-1.06;100.00;93517.91;5054011;28;19967;-87
2021/12/14 06:55:01;;;;;;;;;;;;;;;-1.11;100.00;93520.81;5053676;28;20314;-87
2021/12/14 07:09:58;;;;;;;;;;;;;;;-1.52;100.00;93536.75;5052755;28;19921;-89
2021/12/14 07:15:36;;;;;;;;;;;;;;;-1.55;100.00;93531.16;5012406;28;19932;-88
2021/12/14 07:21:06;;;;;;;;;;;;;;;-1.52;100.00;93539.25;5012012;28;20027;-88
2021/12/14 07:23:35;;;;;;;;;;;;;;;-1.40;100.00;93534.13;5015682;28;19926;-89
2021/12/14 07:26:12;;;;;;;;;;;;;;;-1.29;100.00;93536.53;5051280;28;19925;-88
2021/12/14 07:28:39;;;;;;;;;;;;;;;-1.09;100.00;93536.59;5050792;28;19932;-89
2021/12/14 07:31:13;;;;;;;;;;;;;;;-1.08;100.00;93545.75;5050826;28;19931;-88
2021/12/14 07:33:44;;;;;;;;;;;;;;;-0.86;100.00;93547.25;5050774;28;19974;-88
2021/12/14 07:36:12;;;;;;;;;;;;;;;-0.90;100.00;93545.13;5050915;28;19929;-89
2021/12/14 07:38:42;;;;;;;;;;;;;;;-0.99;100.00;93547.50;5050796;28;19943;-88
2021/12/14 07:41:15;;;;;;;;;;;;;;;-1.04;100.00;93552.13;5050576;28;19978;-88
2021/12/14 07:43:44;;;;;;;;;;;;;;;-0.87;100.00;93544.88;5050455;28;19975;-87
2021/12/14 07:46:25;;;;;;;;;;;;;;;-1.03;100.00;93542.88;5050599;28;19925;-88
2021/12/14 07:48:54;;;;;;;;;;;;;;;-1.13;100.00;93546.16;5050817;28;20354;-87
2021/12/14 07:51:22;;;;;;;;;;;;;;;-1.06;100.00;93551.47;5066450;28;20425;-87
2021/12/14 07:53:52;;;;;;;;;;;;;;;-1.24;100.00;93548.78;5070458;28;20371;-86
2021/12/14 07:56:25;;;;;;;;;;;;;;;-1.31;100.00;93548.50;5070487;28;19924;-87
2021/12/14 07:58:54;;;;;;;;;;;;;;;-1.30;100.00;93551.81;5070680;28;19951;-86
2021/12/14 08:01:20;;;;;;;;;;;;;;;-1.13;100.00;93557.94;5070492;28;19932;-87
2021/12/14 08:03:47;;;;;;;;;;;;;;;-1.00;100.00;93555.19;5070162;28;19947;-88
2021/12/14 08:06:18;;;;;;;;;;;;;;;-1.09;100.00;93554.25;5071896;28;19981;-88
2021/12/14 08:08:53;;;;;;;;;;;;;;;-1.06;100.00;93556.53;5073865;28;19929;-86
2021/12/14 08:11:48;;;;;;;;;;;;;;;-1.15;100.00;93558.06;5073980;28;20023;-86
2021/12/14 08:14:18;;;;;;;;;;;;;;;-1.01;100.00;93563.69;5074046;28;20294;-87
2021/12/14 08:16:47;;;;;;;;;;;;;;;-0.91;100.00;93556.94;5073854;28;19928;-86
2021/12/14 08:19:15;;;;;;;;;;;;;;;-1.35;100.00;93537.88;5073780;28;20406;-84
2021/12/14 08:21:43;;;;;;;;;;;;;;;-1.05;100.00;93557.31;5073679;28;19929;-86
2021/12/14 08:24:09;;;;;;;;;;;;;;;-1.24;100.00;93561.38;5073682;28;19936;-85
2021/12/14 08:26:38;;;;;;;;;;;;;;;-1.28;100.00;93560.84;5073713;28;19924;-86
2021/12/14 08:29:07;;;;;;;;;;;;;;;-1.31;100.00;93565.34;5073776;28;19925;-86
2021/12/14 08:31:37;;;;;;;;;;;;;;;-1.32;100.00;93562.03;5073565;28;19932;-87
2021/12/14 08:34:05;;;;;;;;;;;;;;;-1.31;100.00;93558.56;5073745;28;19932;-85
2021/12/14 08:36:37;;;;;;;;;;;;;;;-1.23;100.00;93560.44;5073663;28;19931;-85
2021/12/14 08:39:08;;;;;;;;;;;;;;;-1.19;100.00;93558.47;5073500;28;19994;-86
2021/12/14 08:41:35;;;;;;;;;;;;;;;-1.22;100.00;93560.34;5073729;28;19971;-86
2021/12/14 08:44:09;;;;;;;;;;;;;;;-1.26;100.00;93561.50;5073312;28;19935;-86
2021/12/14 08:46:37;;;;;;;;;;;;;;;-1.17;100.00;93554.13;5073628;28;19928;-85
2021/12/14 08:49:06;;;;;;;;;;;;;;;-1.23;100.00;93558.75;5073344;28;20357;-85
2021/12/14 08:51:42;;;;;;;;;;;;;;;-1.24;100.00;93553.81;5073167;28;20358;-90
2021/12/14 08:54:11;;;;;;;;;;;;;;;-1.17;100.00;93562.47;5073210;28;20540;-85
2021/12/14 08:56:40;;;;;;;;;;;;;;;-1.21;100.00;93566.97;5073066;28;19928;-87
2021/12/14 08:59:07;;;;;;;;;;;;;;;-1.20;100.00;93562.72;5073376;28;19932;-85
2021/12/14 09:01:34;;;;;;;;;;;;;;;-1.13;100.00;93563.00;5073087;28;20014;-85
2021/12/14 09:04:06;;;;;;;;;;;;;;;-1.22;100.00;93562.84;5072908;28;19925;-85
2021/12/14 09:06:35;;;;;;;;;;;;;;;-1.22;100.00;93560.34;5072989;28;19934;-85
2021/12/14 09:09:04;;;;;;;;;;;;;;;-1.18;100.00;93549.97;5073009;28;19928;-87
2021/12/14 09:11:33;;;;;;;;;;;;;;;-1.19;100.00;93548.38;5072700;28;19924;-85
2021/12/14 09:14:00;;;;;;;;;;;;;;;-1.18;100.00;93549.97;5073067;28;21046;-84
2021/12/14 09:16:28;;;;;;;;;;;;;;;-1.15;100.00;93549.72;5072859;28;20371;-85
2021/12/14 09:19:00;;;;;;;;;;;;;;;-1.23;100.00;93545.34;5072139;28;20307;-84
2021/12/14 09:21:30;;;;;;;;;;;;;;;-1.24;100.00;93548.78;5072711;28;19931;-86
2021/12/14 09:24:05;;;;;;;;;;;;;;;-1.07;100.00;93547.34;5072405;28;19928;-84
2021/12/14 09:26:35;;;;;;;;;;;;;;;-1.14;100.00;93546.28;5072745;28;20022;-86
2021/12/14 09:29:02;;;;;;;;;;;;;;;-1.19;100.00;93545.88;5072656;28;19950;-83
2021/12/14 09:31:31;;;;;;;;;;;;;;;-1.16;100.00;93546.41;5072413;28;19932;-84
2021/12/14 09:34:01;;;;;;;;;;;;;;;-1.22;100.00;93540.16;5072444;28;20406;-85
2021/12/14 09:36:31;;;;;;;;;;;;;;;-1.09;100.00;93536.59;5071625;28;20267;-84
2021/12/14 09:39:00;;;;;;;;;;;;;;;-1.04;100.00;93539.53;5072446;28;20295;-84
2021/12/14 09:41:31;;;;;;;;;;;;;;;-0.87;100.00;93537.28;5072207;28;20378;-83
2021/12/14 09:43:58;;;;;;;;;;;;;;;-0.92;100.00;93527.63;5072225;28;19928;-84
2021/12/14 09:46:25;;;;;;;;;;;;;;;-0.81;100.00;93529.19;5072217;28;19925;-84
2021/12/14 09:48:54;;;;;;;;;;;;;;;-0.93;100.00;93531.03;5072052;28;19924;-84
2021/12/14 09:51:23;;;;;;;;;;;;;;;-0.77;100.00;93522.97;5072164;28;19971;-84
2021/12/14 09:53:53;;;;;;;;;;;;;;;-0.68;100.00;93514.59;5072171;28;19925;-84
2021/12/14 09:56:21;;;;;;;;;;;;;;;-0.77;100.00;93520.44;5072126;28;19928;-84
2021/12/14 09:58:50;;;;;;;;;;;;;;;-0.81;100.00;93524.16;5071886;28;19925;-84
2021/12/14 10:01:18;;;;;;;;;;;;;;;-0.84;100.00;93521.88;5071699;28;20321;-85
2021/12/14 10:03:46;;;;;;;;;;;;;;;-0.74;100.00;93519.38;5071078;28;19924;-83
2021/12/14 10:06:15;;;;;;;;;;;;;;;-0.56;100.00;93524.53;5068844;28;19955;-84
2021/12/14 10:08:45;;;;;;;;;;;;;;;-0.54;100.00;93522.69;5071931;28;20363;-83
2021/12/14 10:11:23;;;;;;;;;;;;;;;-0.41;100.00;93532.53;5071066;28;19931;-85
2021/12/14 10:13:50;;;;;;;;;;;;;;;-0.49;100.00;93530.66;5070171;28;19924;-84
2021/12/14 10:16:16;;;;;;;;;;;;;;;-0.44;100.00;93525.22;5071208;28;20031;-84
2021/12/14 10:18:44;;;;;;;;;;;;;;;-0.51;100.00;93517.38;5070455;28;20443;-85
2021/12/14 10:21:12;;;;;;;;;;;;;;;-0.55;100.00;93524.41;5071368;28;19924;-84
2021/12/14 10:23:40;;;;;;;;;;;;;;;-0.57;100.00;93518.72;5070441;28;20371;-83
2021/12/14 10:26:07;;;;;;;;;;;;;;;-0.44;100.00;93510.06;5070660;28;19924;-84
2021/12/14 10:28:36;;;;;;;;;;;;;;;-0.36;100.00;93505.16;5070466;28;20278;-83
2021/12/14 10:31:05;;;;;;;;;;;;;;;-0.29;100.00;93503.69;5070119;28;19925;-83
2021/12/14 10:33:33;;;;;;;;;;;;;;;-0.20;100.00;93501.25;5070614;28;19931;-83
2021/12/14 10:36:04;;;;;;;;;;;;;;;-0.33;100.00;93504.88;5070663;28;19986;-83
2021/12/14 10:38:37;;;;;;;;;;;;;;;-0.26;100.00;93507.66;5067545;28;20019;-84
2021/12/14 10:43:52;;;;;;;;;;;;;;;-0.48;100.00;93516.31;5071433;28;19931;-82
2021/12/14 10:46:21;;;;;;;;;;;;;;;-0.40;100.00;93516.44;5071386;28;19924;-83
2021/12/14 10:48:48;;;;;;;;;;;;;;;-0.43;100.00;93509.13;5071292;28;19947;-83
2021/12/14 10:51:17;;;;;;;;;;;;;;;-0.36;100.00;93506.88;5071442;28;19929;-82
2021/12/14 10:53:46;;;;;;;;;;;;;;;-0.33;100.00;93511.66;5071123;28;20371;-83
2021/12/14 10:56:15;;;;;;;;;;;;;;;-0.47;100.00;93513.66;5071362;28;19925;-82
2021/12/14 10:58:42;;;;;;;;;;;;;;;-0.49;100.00;93509.66;5071393;28;19931;-82
2021/12/14 11:01:13;;;;;;;;;;;;;;;-0.49;100.00;93510.47;5071205;28;19971;-83
2021/12/14 11:03:43;;;;;;;;;;;;;;;-0.51;100.00;93504.75;5071077;28;20379;-84
2021/12/14 11:06:13;;;;;;;;;;;;;;;-0.36;100.00;93502.63;5071289;28;19928;-82
2021/12/14 11:08:47;;;;;;;;;;;;;;;-0.42;100.00;93501.44;5070950;28;20011;-83
2021/12/14 11:11:18;;;;;;;;;;;;;;;-0.37;100.00;93493.44;5070980;28;20446;-84
2021/12/14 11:13:47;;;;;;;;;;;;;;;-0.34;100.00;93489.84;5071087;28;20383;-82
2021/12/14 11:16:21;;;;;;;;;;;;;;;-0.48;100.00;93486.81;5070882;28;19924;-83
2021/12/14 11:21:43;;;;;;;;;;;;;;;-0.36;100.00;93484.97;5062363;28;20294;-83
2021/12/14 11:24:09;;;;;;;;;;;;;;;-0.42;100.00;93473.66;5071024;28;19936;-82
2021/12/14 11:26:36;;;;;;;;;;;;;;;-0.31;100.00;93471.94;5070644;28;20424;-83
2021/12/14 11:29:06;;;;;;;;;;;;;;;-0.29;100.00;93462.47;5070778;28;19940;-82
2021/12/14 11:31:37;;;;;;;;;;;;;;;-0.17;100.00;93463.94;5070901;28;20379;-83
2021/12/14 11:34:05;;;;;;;;;;;;;;;-0.30;100.00;93458.38;5070819;28;19925;-82
2021/12/14 11:36:33;;;;;;;;;;;;;;;-0.23;100.00;93463.66;5070614;28;20023;-83
2021/12/14 11:39:06;;;;;;;;;;;;;;;-0.45;100.00;93458.81;5070879;28;19924;-82
2021/12/14 11:41:35;;;;;;;;;;;;;;;-0.44;100.00;93462.13;5073172;28;20011;-83
2021/12/14 11:44:05;;;;;;;;;;;;;;;-0.43;100.00;93458.66;5074704;28;19978;-85
2021/12/14 11:46:33;;;;;;;;;;;;;;;-0.43;100.00;93461.97;5074552;28;19928;-82
2021/12/14 11:49:04;;;;;;;;;;;;;;;-0.33;100.00;93464.47;5074468;28;19928;-82
2021/12/14 11:51:31;;;;;;;;;;;;;;;-0.39;100.00;93470.06;5074203;28;19963;-83
2021/12/14 11:53:59;;;;;;;;;;;;;;;-0.44;100.00;93467.16;5074269;28;19924;-84
2021/12/14 11:56:27;;;;;;;;;;;;;;;-0.49;100.00;93460.00;5074645;28;19924;-85
2021/12/14 11:58:55;;;;;;;;;;;;;;;-0.49;100.00;93459.19;5074285;28;20390;-83
2021/12/14 12:01:24;;;;;;;;;;;;;;;-0.54;100.00;93460.41;5074265;28;20023;-83
2021/12/14 12:03:59;;;;;;;;;;;;;;;-0.46;100.00;93458.94;5074112;28;19924;-84
2021/12/14 12:06:46;;;;;;;;;;;;;;;-0.42;100.00;93462.75;5073940;28;20394;-83
2021/12/14 12:09:31;;;;;;;;;;;;;;;-0.38;100.00;93466.63;5074036;28;19928;-82
2021/12/14 12:12:11;;;;;;;;;;;;;;;-0.25;100.00;93460.47;5054060;28;19925;-84
2021/12/14 12:14:40;;;;;;;;;;;;;;;-0.33;100.00;93467.00;5054003;28;19960;-85
2021/12/14 12:17:14;;;;;;;;;;;;;;;-0.41;100.00;93470.22;5053787;28;19932;-86
2021/12/14 12:19:41;;;;;;;;;;;;;;;-0.47;100.00;93470.75;5054062;28;19925;-84
2021/12/14 12:22:11;;;;;;;;;;;;;;;-0.52;100.00;93460.25;5067843;28;19955;-84
2021/12/14 12:24:40;;;;;;;;;;;;;;;-0.37;100.00;93465.69;5073824;28;20662;-84
2021/12/14 12:27:17;;;;;;;;;;;;;;;-0.27;100.00;93458.09;5073499;28;19928;-84
2021/12/14 12:29:58;;;;;;;;;;;;;;;-0.38;100.00;93456.53;5073679;28;19928;-84
2021/12/14 12:32:28;;;;;;;;;;;;;;;-0.37;100.00;93469.94;5073703;28;19985;-85
2021/12/14 12:34:54;;;;;;;;;;;;;;;-0.40;100.00;93465.97;5073660;28;19924;-84
2021/12/14 12:37:39;;;;;;;;;;;;;;;-0.43;100.00;93461.19;5073536;28;19924;-85
2021/12/14 12:40:09;;;;;;;;;;;;;;;-0.45;100.00;93463.06;5073517;28;19967;-84
2021/12/14 12:42:36;;;;;;;;;;;;;;;-0.48;100.00;93474.22;5073629;28;20019;-87
2021/12/14 12:45:04;;;;;;;;;;;;;;;-0.52;100.00;93459.47;5073446;28;19936;-85
2021/12/14 12:47:32;;;;;;;;;;;;;;;-0.52;100.00;93456.97;5073891;28;20317;-85
2021/12/14 12:50:00;;;;;;;;;;;;;;;-0.55;100.00;93468.91;5073131;28;20015;-85
2021/12/14 12:52:29;;;;;;;;;;;;;;;-0.57;100.00;93465.72;5072220;28;20378;-86
2021/12/14 12:54:58;;;;;;;;;;;;;;;-0.65;100.00;93463.06;5073506;28;19935;-85
2021/12/14 12:57:36;;;;;;;;;;;;;;;-0.66;100.00;93464.00;5073258;28;19931;-86
2021/12/14 13:00:25;;;;;;;;;;;;;;;-0.61;100.00;93466.13;5073180;28;19925;-85
2021/12/14 13:02:54;;;;;;;;;;;;;;;-0.63;100.00;93466.28;5071676;28;20333;-85
2021/12/14 13:05:27;;;;;;;;;;;;;;;-0.63;100.00;93458.69;5072371;28;20382;-85
2021/12/14 13:07:55;;;;;;;;;;;;;;;-0.70;100.00;93467.72;5070524;28;20333;-86
2021/12/14 13:10:32;;;;;;;;;;;;;;;-0.65;100.00;93465.59;5072941;28;19929;-85
2021/12/14 13:13:07;;;;;;;;;;;;;;;-0.73;100.00;93465.47;5072652;28;20018;-84
2021/12/14 13:15:48;;;;;;;;;;;;;;;-0.62;100.00;93465.34;5071920;28;19924;-88
2021/12/14 13:18:15;;;;;;;;;;;;;;;-0.70;100.00;93460.97;5071312;28;19924;-87
2021/12/14 13:20:45;;;;;;;;;;;;;;;-0.71;100.00;93459.38;5072015;28;19924;-85
2021/12/14 13:23:11;;;;;;;;;;;;;;;-0.55;100.00;93465.59;5072038;28;19924;-90
2021/12/14 13:25:41;;;;;;;;;;;;;;;-0.52;100.00;93462.78;5052514;28;19990;-85
2021/12/14 13:28:13;;;;;;;;;;;;;;;-0.64;100.00;93466.41;5052397;28;20413;-86
2021/12/14 13:30:40;;;;;;;;;;;;;;;-0.57;100.00;93472.50;5066598;28;19958;-86
2021/12/14 13:33:23;;;;;;;;;;;;;;;-0.63;100.00;93467.97;5071776;28;20314;-86
2021/12/14 13:35:49;;;;;;;;;;;;;;;-0.55;100.00;93471.44;5065907;28;20453;-87
2021/12/14 13:38:22;;;;;;;;;;;;;;;-0.57;100.00;93465.72;5066887;28;20296;-86
2021/12/14 13:40:48;;;;;;;;;;;;;;;-0.58;100.00;93469.19;5067201;28;19928;-86
2021/12/14 13:43:40;;;;;;;;;;;;;;;-0.56;100.00;93464.78;5066940;28;20386;-85
2021/12/14 13:46:10;;;;;;;;;;;;;;;-0.53;100.00;93468.78;5066558;28;19966;-89
2021/12/14 13:48:48;;;;;;;;;;;;;;;-0.52;100.00;93475.41;5066417;28;19928;-83
2021/12/14 13:51:16;;;;;;;;;;;;;;;-0.46;100.00;93474.09;5066566;28;20023;-86
2021/12/14 13:53:45;;;;;;;;;;;;;;;-0.43;100.00;93478.84;5066795;28;19974;-86
2021/12/14 13:56:19;;;;;;;;;;;;;;;-0.44;100.00;93485.63;5066459;28;19925;-87
2021/12/14 13:58:46;;;;;;;;;;;;;;;-0.47;100.00;93485.91;5066394;28;19932;-87
2021/12/14 14:01:16;;;;;;;;;;;;;;;-0.42;100.00;93488.81;5066476;28;20357;-86
2021/12/14 14:03:44;;;;;;;;;;;;;;;-0.50;100.00;93483.66;5066358;28;19924;-87
2021/12/14 14:06:14;;;;;;;;;;;;;;;-0.52;100.00;93490.53;5066412;28;19932;-89
2021/12/14 14:08:42;;;;;;;;;;;;;;;-0.45;100.00;93494.16;5066053;28;19933;-87
2021/12/14 14:11:10;;;;;;;;;;;;;;;-0.51;100.00;93496.41;5066360;28;20008;-91
2021/12/14 14:13:37;;;;;;;;;;;;;;;-0.44;100.00;93489.88;5066286;28;19956;-86
2021/12/14 14:16:15;;;;;;;;;;;;;;;;;;;;;
2021/12/14 14:18:44;;;;;;;;;;;;;;;-0.39;100.00;93486.94;5065858;28;20386;-87
2021/12/14 14:21:12;;;;;;;;;;;;;;;-0.36;100.00;93492.53;5063355;28;20371;-88
2021/12/14 14:23:52;;;;;;;;;;;;;;;-0.49;100.00;93507.97;5065810;28;19929;-87
2021/12/14 14:26:43;;;;;;;;;;;;;;;-0.52;100.00;93503.16;5065930;28;19935;-87
2021/12/14 14:29:25;;;;;;;;;;;;;;;-0.58;100.00;93502.00;5065616;28;19924;-87
2021/12/14 14:32:07;;;;;;;;;;;;;;;-0.51;100.00;93503.97;5065654;28;19932;-87
2021/12/14 14:34:53;;;;;;;;;;;;;;;-0.35;100.00;93501.69;5063854;28;20390;-87
2021/12/14 14:37:31;;;;;;;;;;;;;;;-0.42;100.00;93505.66;5065873;28;20018;-89
2021/12/14 14:39:59;;;;;;;;;;;;;;;-0.58;100.00;93507.03;5065505;28;19925;-88
2021/12/14 14:42:30;;;;;;;;;;;;;;;-0.55;100.00;93508.50;5065528;28;19932;-87
2021/12/14 14:45:01;;;;;;;;;;;;;;;-0.52;100.00;93499.88;5065895;28;20283;-88
2021/12/14 14:47:31;;;;;;;;;;;;;;;-0.54;100.00;93505.81;5065783;28;19986;-87
2021/12/14 14:50:03;;;;;;;;;;;;;;;-0.49;100.00;93513.00;5065362;28;19932;-87
2021/12/14 14:52:33;;;;;;;;;;;;;;;-0.42;100.00;93506.47;5065499;28;19979;-88
2021/12/14 14:55:06;;;;;;;;;;;;;;;-0.40;100.00;93506.34;5065412;28;19933;-86
2021/12/14 14:58:05;;;;;;;;;;;;;;;-0.38;100.00;93501.94;5065009;28;19939;-86
2021/12/14 15:00:46;;;;;;;;;;;;;;;-0.34;100.00;93503.28;5065467;28;19954;-87
2021/12/14 15:03:15;;;;;;;;;;;;;;;-0.27;100.00;93506.06;5065644;28;19928;-88
2021/12/14 15:05:47;;;;;;;;;;;;;;;-0.04;100.00;93506.53;5065425;28;20371;-89
2021/12/14 15:08:21;;;;;;;;;;;;;;;-0.18;100.00;93502.72;5065262;28;20361;-87
2021/12/14 15:10:49;;;;;;;;;;;;;;;-0.25;100.00;93510.97;5065541;28;19940;-89
2021/12/14 15:13:22;;;;;;;;;;;;;;;-0.29;100.00;93513.78;5065487;28;20578;-88
2021/12/14 15:15:57;;;;;;;;;;;;;;;-0.41;100.00;93512.34;5066129;28;20027;-86
2021/12/14 15:18:41;;;;;;;;;;;;;;;-0.47;100.00;93513.66;5069882;28;20586;-88
2021/12/14 15:21:24;;;;;;;;;;;;;;;-0.49;100.00;93514.72;5069342;28;20359;-88
2021/12/14 15:23:53;;;;;;;;;;;;;;;-0.47;100.00;93516.19;5068741;28;19932;-86
2021/12/14 15:26:22;;;;;;;;;;;;;;;-0.55;100.00;93519.38;5069526;28;19978;-88
2021/12/14 15:29:16;;;;;;;;;;;;;;;-0.46;100.00;93527.09;5068992;28;19928;-90
2021/12/14 15:31:52;;;;;;;;;;;;;;;-0.47;100.00;93528.78;5068433;28;19967;-88